createdAt,value
2019-03-15T00:00:26.386Z,87.43
2019-03-15T00:01:24.283Z,87.81
2019-03-15T00:02:25.348Z,88.32
2019-03-15T00:03:24.264Z,85.94
2019-03-15T00:04:24.284Z,87.18
2019-03-15T00:05:24.235Z,86.15
2019-03-15T00:06:24.934Z,86.46
2019-03-15T00:07:25.285Z,86.36
2019-03-15T00:08:24.205Z,87.29
2019-03-15T00:09:24.235Z,86.67
2019-03-15T00:10:24.188Z,85.94
2019-03-15T00:11:24.226Z,84.08
2019-03-15T00:12:24.166Z,83.98
2019-03-15T00:13:24.267Z,85.18
2019-03-15T00:14:24.158Z,85.91
2019-03-15T00:15:24.201Z,83.73
2019-03-15T00:16:24.109Z,82.70
2019-03-15T00:17:24.111Z,82.08
2019-03-15T00:18:24.100Z,81.56
2019-03-15T00:19:24.110Z,81.25
2019-03-15T00:20:24.071Z,81.25
2019-03-15T00:21:24.111Z,81.21
2019-03-15T00:22:24.068Z,80.18
2019-03-15T00:23:24.031Z,80.60
2019-03-15T00:24:27.433Z,80.70
2019-03-15T00:25:24.002Z,79.46
2019-03-15T00:26:24.042Z,78.63
2019-03-15T00:27:23.984Z,79.77
2019-03-15T00:28:23.974Z,80.29
2019-03-15T00:29:23.974Z,80.80
2019-03-15T00:30:24.018Z,81.52
2019-03-15T00:31:23.936Z,80.80
2019-03-15T00:32:24.977Z,80.18
2019-03-15T00:33:24.504Z,79.15
2019-03-15T00:34:24.027Z,79.25
2019-03-15T00:35:23.889Z,80.18
2019-03-15T00:36:25.967Z,77.91
2019-03-15T00:37:23.869Z,77.67
2019-03-15T00:38:24.018Z,78.22
2019-03-15T00:39:23.869Z,77.04
2019-03-15T00:40:23.888Z,77.25
2019-03-15T00:41:23.830Z,77.25
2019-03-15T00:42:23.834Z,77.25
2019-03-15T00:43:23.799Z,77.77
2019-03-15T00:44:23.801Z,76.22
2019-03-15T00:45:24.862Z,77.04
2019-03-15T00:46:24.032Z,77.25
2019-03-15T00:47:24.798Z,77.46
2019-03-15T00:48:23.742Z,76.22
2019-03-15T00:49:23.753Z,76.73
2019-03-15T00:50:23.732Z,76.12
2019-03-15T00:51:23.902Z,75.81
2019-03-15T00:52:23.704Z,76.22
2019-03-15T00:53:23.786Z,75.81
2019-03-15T00:54:24.724Z,78.08
2019-03-15T00:55:23.674Z,76.53
2019-03-15T00:56:23.685Z,76.22
2019-03-15T00:57:23.646Z,75.91
2019-03-15T00:58:23.719Z,77.56
2019-03-15T00:59:23.636Z,76.01
2019-03-15T01:00:23.625Z,76.43
2019-03-15T01:01:23.629Z,75.49
2019-03-15T01:02:23.588Z,74.77
2019-03-15T01:03:23.667Z,76.94
2019-03-15T01:04:23.568Z,75.91
2019-03-15T01:05:23.548Z,75.91
2019-03-15T01:06:23.532Z,76.01
2019-03-15T01:07:23.640Z,77.46
2019-03-15T01:08:23.513Z,76.32
2019-03-15T01:09:23.627Z,75.39
2019-03-15T01:10:23.491Z,74.77
2019-03-15T01:11:23.512Z,75.81
2019-03-15T01:12:23.462Z,77.15
2019-03-15T01:13:23.543Z,75.91
2019-03-15T01:14:23.447Z,76.01
2019-03-15T01:15:23.524Z,75.81
2019-03-15T01:16:23.453Z,75.29
2019-03-15T01:17:23.403Z,73.64
2019-03-15T01:18:23.483Z,72.78
2019-03-15T01:19:23.374Z,73.91
2019-03-15T01:20:23.465Z,73.50
2019-03-15T01:21:23.395Z,73.39
2019-03-15T01:22:23.345Z,75.39
2019-03-15T01:23:23.428Z,73.33
2019-03-15T01:24:23.326Z,73.22
2019-03-15T01:25:24.439Z,73.60
2019-03-15T01:26:23.308Z,74.02
2019-03-15T01:27:23.399Z,73.29
2019-03-15T01:28:23.288Z,74.63
2019-03-15T01:29:24.359Z,74.77
2019-03-15T01:30:23.290Z,76.12
2019-03-15T01:31:24.300Z,76.22
2019-03-15T01:32:23.254Z,75.91
2019-03-15T01:33:23.379Z,74.88
2019-03-15T01:34:23.221Z,76.12
2019-03-15T01:35:23.291Z,75.84
2019-03-15T01:36:23.203Z,75.22
2019-03-15T01:37:23.192Z,75.74
2019-03-15T01:38:23.182Z,75.84
2019-03-15T01:39:23.212Z,75.95
2019-03-15T01:40:23.163Z,76.46
2019-03-15T01:41:24.173Z,76.36
2019-03-15T01:42:23.135Z,77.91
2019-03-15T01:43:25.134Z,79.46
2019-03-15T01:44:23.094Z,77.01
2019-03-15T01:45:23.176Z,77.70
2019-03-15T01:46:23.087Z,78.53
2019-03-15T01:47:23.185Z,77.81
2019-03-15T01:48:23.076Z,77.22
2019-03-15T01:49:23.087Z,77.91
2019-03-15T01:50:23.049Z,78.01
2019-03-15T01:51:24.051Z,77.91
2019-03-15T01:52:23.008Z,79.29
2019-03-15T01:53:23.493Z,79.91
2019-03-15T01:54:22.981Z,79.80
2019-03-15T01:55:24.059Z,79.70
2019-03-15T01:56:22.959Z,77.12
2019-03-15T01:57:23.033Z,77.33
2019-03-15T01:58:22.941Z,77.84
2019-03-15T01:59:23.050Z,80.53
2019-03-15T02:00:22.983Z,81.35
2019-03-15T02:01:22.904Z,81.56
2019-03-15T02:02:22.972Z,82.08
2019-03-15T02:03:22.883Z,82.50
2019-03-15T02:04:22.862Z,81.46
2019-03-15T02:05:22.875Z,81.35
2019-03-15T02:06:24.953Z,80.15
2019-03-15T02:07:22.834Z,80.74
2019-03-15T02:08:22.874Z,80.77
2019-03-15T02:09:22.825Z,80.46
2019-03-15T02:10:23.016Z,79.63
2019-03-15T02:11:22.896Z,80.32
2019-03-15T02:12:22.786Z,80.63
2019-03-15T02:13:22.826Z,80.74
2019-03-15T02:14:22.767Z,81.15
2019-03-15T02:15:22.767Z,80.74
2019-03-15T02:16:22.738Z,80.11
2019-03-15T02:17:22.799Z,80.63
2019-03-15T02:18:22.718Z,81.15
2019-03-15T02:19:23.758Z,82.39
2019-03-15T02:20:22.709Z,81.56
2019-03-15T02:21:22.776Z,81.15
2019-03-15T02:22:22.659Z,81.39
2019-03-15T02:23:23.740Z,82.32
2019-03-15T02:24:22.640Z,81.49
2019-03-15T02:25:22.681Z,82.12
2019-03-15T02:26:22.771Z,82.01
2019-03-15T02:27:22.602Z,82.43
2019-03-15T02:28:22.643Z,81.29
2019-03-15T02:29:22.593Z,81.60
2019-03-15T02:30:22.614Z,82.08
2019-03-15T02:31:22.555Z,82.50
2019-03-15T02:32:22.632Z,82.29
2019-03-15T02:33:22.537Z,82.43
2019-03-15T02:34:22.546Z,82.64
2019-03-15T02:35:22.527Z,81.19
2019-03-15T02:36:22.587Z,80.94
2019-03-15T02:37:22.485Z,81.15
2019-03-15T02:38:22.517Z,81.35
2019-03-15T02:39:22.468Z,81.25
2019-03-15T02:40:22.501Z,80.63
2019-03-15T02:41:22.447Z,80.70
2019-03-15T02:42:22.431Z,81.84
2019-03-15T02:43:22.421Z,81.25
2019-03-15T02:44:22.430Z,81.25
2019-03-15T02:45:22.410Z,82.04
2019-03-15T02:46:23.491Z,81.25
2019-03-15T02:47:22.372Z,81.25
2019-03-15T02:48:22.364Z,81.15
2019-03-15T02:49:22.464Z,81.46
2019-03-15T02:50:22.354Z,81.73
2019-03-15T02:51:23.687Z,82.18
2019-03-15T02:52:22.334Z,82.50
2019-03-15T02:53:22.314Z,82.70
2019-03-15T02:54:22.324Z,81.56
2019-03-15T02:55:23.346Z,81.25
2019-03-15T02:56:22.283Z,81.35
2019-03-15T02:57:22.320Z,82.08
2019-03-15T02:58:22.269Z,82.18
2019-03-15T02:59:23.276Z,82.08
2019-03-15T03:00:22.249Z,82.80
2019-03-15T03:01:22.288Z,84.05
2019-03-15T03:02:22.217Z,84.05
2019-03-15T03:03:22.216Z,84.15
2019-03-15T03:04:22.187Z,83.87
2019-03-15T03:05:22.420Z,83.87
2019-03-15T03:06:22.169Z,83.98
2019-03-15T03:07:22.190Z,84.70
2019-03-15T03:08:22.134Z,83.98
2019-03-15T03:09:22.124Z,83.77
2019-03-15T03:10:22.240Z,84.50
2019-03-15T03:11:22.101Z,84.19
2019-03-15T03:12:23.171Z,82.95
2019-03-15T03:13:22.082Z,83.46
2019-03-15T03:14:22.074Z,84.08
2019-03-15T03:15:22.072Z,84.08
2019-03-15T03:16:23.173Z,83.87
2019-03-15T03:17:22.033Z,83.36
2019-03-15T03:18:23.063Z,83.77
2019-03-15T03:19:22.254Z,82.74
2019-03-15T03:20:21.994Z,82.43
2019-03-15T03:21:22.086Z,83.98
2019-03-15T03:22:21.974Z,82.60
2019-03-15T03:23:22.997Z,82.18
2019-03-15T03:24:22.206Z,82.08
2019-03-15T03:25:21.936Z,81.35
2019-03-15T03:26:22.026Z,80.90
2019-03-15T03:27:21.918Z,81.67
2019-03-15T03:28:22.020Z,83.01
2019-03-15T03:29:22.048Z,83.94
2019-03-15T03:30:21.879Z,84.15
2019-03-15T03:31:21.902Z,82.90
2019-03-15T03:32:21.902Z,82.70
2019-03-15T03:33:21.862Z,82.39
2019-03-15T03:34:21.931Z,83.01
2019-03-15T03:35:21.831Z,84.29
2019-03-15T03:36:21.911Z,82.12
2019-03-15T03:37:21.812Z,83.01
2019-03-15T03:38:21.902Z,83.84
2019-03-15T03:39:21.793Z,82.29
2019-03-15T03:40:21.835Z,83.01
2019-03-15T03:41:23.148Z,84.25
2019-03-15T03:42:21.782Z,84.19
2019-03-15T03:43:21.743Z,83.98
2019-03-15T03:44:21.803Z,84.29
2019-03-15T03:45:23.348Z,84.08
2019-03-15T03:46:21.714Z,84.19
2019-03-15T03:47:21.685Z,84.08
2019-03-15T03:48:21.780Z,84.50
2019-03-15T03:49:21.670Z,84.08
2019-03-15T03:50:21.717Z,84.60
2019-03-15T03:51:21.656Z,84.29
2019-03-15T03:52:21.647Z,84.29
2019-03-15T03:53:21.618Z,85.63
2019-03-15T03:54:21.688Z,84.19
2019-03-15T03:55:21.601Z,83.67
2019-03-15T03:56:22.690Z,84.29
2019-03-15T03:57:21.569Z,85.94
2019-03-15T03:58:21.660Z,85.94
2019-03-15T03:59:21.552Z,84.81
2019-03-15T04:00:21.591Z,85.74
2019-03-15T04:01:21.540Z,85.32
2019-03-15T04:02:21.511Z,85.84
2019-03-15T04:03:21.501Z,85.36
2019-03-15T04:04:21.563Z,83.87
2019-03-15T04:05:21.473Z,82.43
2019-03-15T04:06:21.532Z,82.95
2019-03-15T04:07:21.563Z,84.08
2019-03-15T04:08:21.453Z,83.25
2019-03-15T04:09:21.507Z,84.29
2019-03-15T04:10:21.425Z,84.25
2019-03-15T04:11:21.488Z,83.84
2019-03-15T04:12:21.401Z,82.84
2019-03-15T04:13:21.468Z,82.70
2019-03-15T04:14:21.375Z,82.39
2019-03-15T04:15:21.418Z,83.01
2019-03-15T04:16:21.377Z,82.50
2019-03-15T04:17:22.367Z,82.39
2019-03-15T04:18:21.354Z,81.87
2019-03-15T04:19:21.388Z,82.08
2019-03-15T04:20:21.322Z,81.77
2019-03-15T04:21:21.369Z,81.05
2019-03-15T04:22:21.290Z,81.15
2019-03-15T04:23:21.280Z,81.21
2019-03-15T04:24:21.270Z,81.32
2019-03-15T04:25:21.377Z,81.42
2019-03-15T04:26:21.250Z,81.21
2019-03-15T04:27:21.337Z,82.29
2019-03-15T04:28:21.213Z,82.18
2019-03-15T04:29:21.259Z,83.01
2019-03-15T04:30:21.192Z,83.63
2019-03-15T04:31:22.262Z,83.11
2019-03-15T04:32:21.183Z,83.94
2019-03-15T04:33:22.271Z,84.45
2019-03-15T04:34:21.144Z,84.25
2019-03-15T04:35:21.164Z,84.39
2019-03-15T04:36:21.136Z,83.73
2019-03-15T04:37:22.881Z,84.36
2019-03-15T04:38:21.095Z,85.49
2019-03-15T04:39:21.085Z,84.66
2019-03-15T04:40:21.076Z,84.66
2019-03-15T04:41:21.117Z,86.01
2019-03-15T04:42:21.057Z,86.05
2019-03-15T04:43:21.108Z,85.84
2019-03-15T04:44:21.029Z,85.94
2019-03-15T04:45:21.050Z,85.42
2019-03-15T04:46:21.020Z,85.74
2019-03-15T04:47:22.112Z,86.88
2019-03-15T04:48:20.980Z,86.81
2019-03-15T04:49:21.020Z,85.32
2019-03-15T04:50:20.961Z,85.32
2019-03-15T04:51:21.001Z,85.84
2019-03-15T04:52:20.942Z,85.63
2019-03-15T04:53:20.992Z,86.40
2019-03-15T04:54:20.929Z,86.09
2019-03-15T04:55:20.913Z,86.91
2019-03-15T04:56:20.946Z,85.99
2019-03-15T04:57:20.895Z,85.78
2019-03-15T04:58:21.964Z,86.50
2019-03-15T04:59:23.883Z,86.29
2019-03-15T05:00:20.846Z,86.05
2019-03-15T05:01:20.867Z,85.84
2019-03-15T05:02:20.908Z,86.05
2019-03-15T05:03:20.826Z,85.84
2019-03-15T05:04:20.836Z,84.91
2019-03-15T05:05:20.796Z,83.94
2019-03-15T05:06:20.797Z,84.56
2019-03-15T05:07:20.848Z,85.32
2019-03-15T05:08:20.769Z,85.49
2019-03-15T05:09:22.829Z,85.91
2019-03-15T05:10:20.728Z,83.67
2019-03-15T05:11:20.740Z,83.73
2019-03-15T05:12:20.721Z,83.94
2019-03-15T05:13:21.770Z,83.84
2019-03-15T05:14:20.690Z,82.18
2019-03-15T05:15:20.792Z,82.90
2019-03-15T05:16:20.693Z,82.18
2019-03-15T05:17:20.722Z,81.56
2019-03-15T05:18:20.643Z,81.46
2019-03-15T05:19:20.652Z,81.98
2019-03-15T05:20:21.303Z,82.90
2019-03-15T05:21:20.733Z,82.29
2019-03-15T05:22:20.594Z,82.08
2019-03-15T05:23:20.624Z,82.29
2019-03-15T05:24:20.575Z,82.04
2019-03-15T05:25:20.665Z,83.84
2019-03-15T05:26:20.544Z,82.90
2019-03-15T05:27:20.556Z,82.18
2019-03-15T05:28:21.589Z,82.60
2019-03-15T05:29:20.516Z,82.50
2019-03-15T05:30:20.607Z,81.94
2019-03-15T05:31:20.505Z,81.35
2019-03-15T05:32:20.509Z,82.18
2019-03-15T05:33:20.478Z,82.15
2019-03-15T05:34:20.471Z,82.15
2019-03-15T05:35:20.449Z,81.52
2019-03-15T05:36:22.465Z,81.21
2019-03-15T05:37:20.451Z,82.56
2019-03-15T05:38:20.420Z,82.18
2019-03-15T05:39:22.470Z,83.11
2019-03-15T05:40:20.401Z,83.73
2019-03-15T05:41:21.481Z,83.94
2019-03-15T05:42:20.392Z,82.90
2019-03-15T05:43:20.352Z,83.32
2019-03-15T05:44:20.353Z,84.36
2019-03-15T05:45:20.424Z,84.15
2019-03-15T05:46:20.333Z,84.15
2019-03-15T05:47:20.413Z,83.94
2019-03-15T05:48:20.304Z,83.53
2019-03-15T05:49:20.425Z,85.39
2019-03-15T05:50:20.275Z,85.18
2019-03-15T05:51:20.335Z,84.66
2019-03-15T05:52:20.266Z,84.45
2019-03-15T05:53:20.266Z,85.18
2019-03-15T05:54:20.226Z,85.80
2019-03-15T05:55:20.307Z,85.60
2019-03-15T05:56:20.209Z,85.70
2019-03-15T05:57:20.287Z,86.52
2019-03-15T05:58:21.989Z,85.70
2019-03-15T05:59:20.170Z,84.45
2019-03-15T06:00:20.160Z,84.05
2019-03-15T06:01:20.210Z,84.00
2019-03-15T06:02:20.149Z,83.18
2019-03-15T06:03:21.170Z,82.76
2019-03-15T06:04:21.132Z,83.18
2019-03-15T06:05:20.092Z,83.80
2019-03-15T06:06:20.153Z,84.11
2019-03-15T06:07:20.097Z,84.21
2019-03-15T06:08:20.183Z,84.00
2019-03-15T06:09:20.053Z,84.11
2019-03-15T06:10:20.124Z,83.80
2019-03-15T06:11:20.169Z,82.56
2019-03-15T06:12:20.106Z,82.66
2019-03-15T06:13:20.024Z,83.18
2019-03-15T06:14:20.156Z,84.21
2019-03-15T06:15:19.986Z,84.11
2019-03-15T06:16:20.026Z,84.63
2019-03-15T06:17:20.006Z,85.35
2019-03-15T06:18:20.088Z,83.28
2019-03-15T06:19:20.149Z,84.00
2019-03-15T06:20:20.118Z,85.45
2019-03-15T06:21:19.930Z,84.00
2019-03-15T06:22:19.988Z,82.87
2019-03-15T06:23:19.910Z,83.80
2019-03-15T06:24:21.000Z,84.28
2019-03-15T06:25:19.886Z,84.42
2019-03-15T06:26:20.045Z,83.07
2019-03-15T06:27:20.400Z,82.10
2019-03-15T06:28:19.858Z,82.21
2019-03-15T06:29:20.941Z,82.73
2019-03-15T06:30:19.826Z,82.83
2019-03-15T06:31:19.805Z,81.90
2019-03-15T06:32:19.813Z,81.28
2019-03-15T06:33:19.895Z,80.97
2019-03-15T06:34:19.774Z,81.14
2019-03-15T06:35:19.865Z,80.93
2019-03-15T06:36:19.734Z,81.14
2019-03-15T06:37:19.800Z,82.07
2019-03-15T06:38:19.730Z,81.96
2019-03-15T06:39:21.735Z,81.45
2019-03-15T06:40:19.697Z,81.56
2019-03-15T06:41:19.726Z,80.93
2019-03-15T06:42:19.688Z,80.52
2019-03-15T06:43:19.768Z,80.48
2019-03-15T06:44:19.660Z,81.00
2019-03-15T06:45:19.756Z,80.48
2019-03-15T06:46:19.697Z,79.55
2019-03-15T06:47:19.698Z,79.76
2019-03-15T06:48:19.847Z,79.76
2019-03-15T06:49:19.696Z,80.48
2019-03-15T06:50:19.640Z,79.93
2019-03-15T06:51:19.564Z,80.48
2019-03-15T06:52:19.581Z,80.38
2019-03-15T06:53:19.552Z,80.48
2019-03-15T06:54:19.611Z,81.10
2019-03-15T06:55:19.544Z,80.48
2019-03-15T06:56:19.543Z,80.14
2019-03-15T06:57:19.512Z,81.10
2019-03-15T06:58:19.583Z,81.10
2019-03-15T06:59:19.496Z,80.28
2019-03-15T07:00:20.555Z,80.34
2019-03-15T07:01:19.468Z,80.44
2019-03-15T07:02:19.665Z,80.38
2019-03-15T07:03:21.752Z,79.93
2019-03-15T07:04:19.518Z,80.14
2019-03-15T07:05:20.656Z,79.97
2019-03-15T07:06:21.478Z,79.62
2019-03-15T07:07:19.418Z,79.93
2019-03-15T07:08:19.387Z,79.93
2019-03-15T07:09:19.380Z,80.96
2019-03-15T07:10:19.399Z,79.41
2019-03-15T07:11:19.350Z,79.11
2019-03-15T07:12:20.426Z,79.62
2019-03-15T07:13:19.317Z,79.83
2019-03-15T07:14:19.360Z,80.44
2019-03-15T07:15:19.407Z,79.83
2019-03-15T07:16:20.331Z,79.76
2019-03-15T07:17:19.292Z,78.80
2019-03-15T07:18:20.372Z,79.52
2019-03-15T07:19:26.040Z,79.72
2019-03-15T07:20:20.739Z,80.04
2019-03-15T07:21:19.245Z,80.96
2019-03-15T07:22:20.141Z,79.93
2019-03-15T07:23:19.273Z,79.93
2019-03-15T07:24:24.986Z,79.62
2019-03-15T07:25:20.244Z,79.93
2019-03-15T07:26:19.178Z,80.34
2019-03-15T07:27:19.256Z,79.41
2019-03-15T07:28:19.165Z,79.72
2019-03-15T07:29:19.197Z,79.62
2019-03-15T07:30:19.127Z,78.80
2019-03-15T07:31:21.167Z,79.11
2019-03-15T07:32:19.099Z,79.93
2019-03-15T07:33:19.209Z,79.83
2019-03-15T07:34:19.082Z,79.83
2019-03-15T07:35:19.070Z,79.83
2019-03-15T07:36:19.068Z,79.11
2019-03-15T07:37:19.042Z,79.48
2019-03-15T07:38:21.092Z,79.21
2019-03-15T07:39:19.023Z,79.07
2019-03-15T07:40:19.021Z,79.58
2019-03-15T07:41:19.118Z,79.38
2019-03-15T07:42:18.994Z,79.83
2019-03-15T07:43:20.156Z,80.34
2019-03-15T07:44:18.974Z,80.30
2019-03-15T07:45:18.963Z,80.44
2019-03-15T07:46:18.955Z,80.62
2019-03-15T07:47:20.048Z,80.14
2019-03-15T07:48:22.756Z,79.93
2019-03-15T07:49:18.949Z,80.24
2019-03-15T07:50:18.898Z,80.14
2019-03-15T07:51:18.896Z,80.24
2019-03-15T07:52:18.961Z,79.93
2019-03-15T07:53:18.891Z,79.72
2019-03-15T07:54:18.886Z,79.83
2019-03-15T07:55:18.847Z,80.44
2019-03-15T07:56:18.827Z,80.96
2019-03-15T07:57:20.894Z,79.93
2019-03-15T07:58:18.818Z,79.72
2019-03-15T07:59:18.838Z,80.24
2019-03-15T08:00:18.789Z,79.62
2019-03-15T08:01:18.780Z,79.69
2019-03-15T08:02:18.739Z,79.27
2019-03-15T08:03:18.842Z,79.79
2019-03-15T08:04:18.734Z,79.69
2019-03-15T08:05:18.732Z,80.93
2019-03-15T08:06:18.714Z,79.17
2019-03-15T08:07:20.174Z,79.07
2019-03-15T08:08:18.782Z,79.48
2019-03-15T08:09:18.674Z,80.16
2019-03-15T08:10:18.773Z,79.07
2019-03-15T08:11:18.656Z,79.07
2019-03-15T08:12:18.644Z,79.90
2019-03-15T08:13:18.664Z,78.76
2019-03-15T08:14:18.649Z,80.41
2019-03-15T08:15:18.607Z,79.90
2019-03-15T08:16:18.685Z,81.23
2019-03-15T08:17:18.586Z,81.03
2019-03-15T08:18:18.659Z,81.34
2019-03-15T08:19:18.558Z,81.44
2019-03-15T08:20:20.610Z,81.23
2019-03-15T08:21:18.729Z,80.82
2019-03-15T08:22:18.518Z,80.41
2019-03-15T08:23:18.538Z,81.17
2019-03-15T08:24:19.558Z,80.65
2019-03-15T08:25:18.500Z,80.96
2019-03-15T08:26:18.570Z,82.20
2019-03-15T08:27:18.487Z,82.20
2019-03-15T08:28:18.481Z,81.03
2019-03-15T08:29:18.461Z,81.65
2019-03-15T08:30:18.442Z,81.17
2019-03-15T08:31:19.542Z,81.13
2019-03-15T08:32:18.422Z,81.96
2019-03-15T08:33:18.416Z,81.75
2019-03-15T08:34:18.386Z,82.30
2019-03-15T08:35:19.403Z,82.10
2019-03-15T08:36:20.340Z,82.51
2019-03-15T08:37:18.416Z,83.23
2019-03-15T08:38:18.358Z,82.20
2019-03-15T08:39:19.366Z,82.71
2019-03-15T08:40:18.317Z,83.44
2019-03-15T08:41:18.376Z,84.06
2019-03-15T08:42:18.286Z,85.50
2019-03-15T08:43:18.377Z,84.57
2019-03-15T08:44:18.283Z,85.19
2019-03-15T08:45:18.360Z,85.95
2019-03-15T08:46:18.249Z,85.23
2019-03-15T08:47:21.475Z,85.60
2019-03-15T08:48:18.249Z,85.60
2019-03-15T08:49:18.221Z,86.22
2019-03-15T08:50:18.190Z,86.94
2019-03-15T08:51:19.291Z,87.26
2019-03-15T08:52:18.182Z,86.12
2019-03-15T08:53:19.338Z,85.39
2019-03-15T08:54:18.151Z,85.50
2019-03-15T08:55:18.143Z,85.50
2019-03-15T08:56:18.203Z,85.60
2019-03-15T08:57:18.124Z,84.12
2019-03-15T08:58:21.921Z,82.89
2019-03-15T08:59:18.084Z,84.01
2019-03-15T09:00:18.084Z,84.53
2019-03-15T09:01:18.075Z,85.77
2019-03-15T09:02:18.116Z,85.15
2019-03-15T09:03:27.817Z,82.98
2019-03-15T09:04:21.599Z,83.71
2019-03-15T09:05:18.118Z,84.70
2019-03-15T09:06:18.077Z,83.87
2019-03-15T09:07:18.007Z,81.81
2019-03-15T09:08:19.088Z,82.64
2019-03-15T09:09:17.969Z,82.33
2019-03-15T09:10:23.296Z,82.23
2019-03-15T09:11:18.948Z,82.64
2019-03-15T09:12:19.020Z,83.47
2019-03-15T09:13:17.960Z,82.33
2019-03-15T09:14:18.030Z,82.02
2019-03-15T09:15:17.911Z,82.02
2019-03-15T09:16:17.961Z,82.12
2019-03-15T09:17:20.068Z,82.12
2019-03-15T09:18:17.952Z,83.47
2019-03-15T09:19:17.873Z,83.36
2019-03-15T09:20:17.943Z,83.98
2019-03-15T09:21:17.854Z,82.02
2019-03-15T09:22:17.834Z,80.99
2019-03-15T09:23:17.835Z,81.92
2019-03-15T09:24:18.835Z,83.26
2019-03-15T09:25:20.365Z,82.12
2019-03-15T09:26:17.858Z,81.92
2019-03-15T09:27:17.775Z,82.64
2019-03-15T09:28:17.829Z,81.20
2019-03-15T09:29:17.801Z,81.40
2019-03-15T09:30:23.559Z,81.71
2019-03-15T09:31:18.728Z,83.36
2019-03-15T09:32:17.748Z,83.05
2019-03-15T09:33:17.723Z,83.36
2019-03-15T09:34:17.709Z,83.36
2019-03-15T09:35:18.780Z,83.05
2019-03-15T09:36:17.670Z,82.84
2019-03-15T09:37:17.691Z,83.26
2019-03-15T09:38:17.641Z,82.64
2019-03-15T09:39:17.671Z,80.99
2019-03-15T09:40:17.633Z,81.71
2019-03-15T09:41:31.131Z,81.92
2019-03-15T09:42:18.604Z,82.60
2019-03-15T09:43:18.624Z,81.77
2019-03-15T09:44:17.584Z,81.67
2019-03-15T09:45:17.643Z,81.88
2019-03-15T09:46:17.567Z,82.50
2019-03-15T09:47:18.596Z,81.05
2019-03-15T09:48:17.535Z,80.65
2019-03-15T09:49:17.547Z,80.95
2019-03-15T09:50:26.548Z,80.44
2019-03-15T09:51:18.498Z,81.37
2019-03-15T09:52:17.507Z,81.26
2019-03-15T09:53:17.468Z,80.85
2019-03-15T09:54:19.539Z,80.95
2019-03-15T09:55:17.469Z,82.23
2019-03-15T09:56:18.509Z,80.85
2019-03-15T09:57:17.442Z,82.09
2019-03-15T09:58:18.458Z,80.99
2019-03-15T09:59:19.389Z,81.30
2019-03-15T10:00:17.402Z,81.81
2019-03-15T10:01:33.733Z,82.12
2019-03-15T10:02:29.630Z,81.71
2019-03-15T10:03:22.552Z,81.92
2019-03-15T10:04:17.483Z,81.92
2019-03-15T10:05:17.355Z,82.33
2019-03-15T10:06:19.528Z,83.53
2019-03-15T10:07:17.456Z,82.43
2019-03-15T10:08:17.465Z,81.88
2019-03-15T10:09:17.408Z,81.98
2019-03-15T10:10:18.809Z,81.05
2019-03-15T10:11:17.276Z,80.95
2019-03-15T10:12:17.267Z,81.05
2019-03-15T10:13:19.288Z,82.09
2019-03-15T10:14:17.252Z,82.23
2019-03-15T10:15:17.278Z,82.81
2019-03-15T10:16:17.218Z,81.67
2019-03-15T10:17:18.238Z,81.92
2019-03-15T10:18:17.213Z,81.88
2019-03-15T10:19:18.211Z,82.70
2019-03-15T10:20:17.170Z,81.98
2019-03-15T10:21:17.181Z,80.95
2019-03-15T10:22:19.202Z,80.65
2019-03-15T10:23:17.142Z,81.05
2019-03-15T10:24:17.232Z,81.88
2019-03-15T10:25:17.238Z,80.85
2019-03-15T10:26:18.153Z,81.26
2019-03-15T10:27:17.093Z,81.16
2019-03-15T10:28:18.184Z,80.54
2019-03-15T10:29:19.583Z,82.35
2019-03-15T10:30:23.946Z,80.91
2019-03-15T10:31:17.045Z,80.91
2019-03-15T10:32:17.127Z,80.81
2019-03-15T10:33:18.307Z,80.30
2019-03-15T10:34:17.030Z,80.51
2019-03-15T10:35:17.029Z,81.12
2019-03-15T10:36:16.987Z,81.81
2019-03-15T10:37:18.088Z,80.67
2019-03-15T10:38:17.019Z,80.51
2019-03-15T10:39:17.052Z,80.77
2019-03-15T10:40:16.960Z,80.26
2019-03-15T10:41:23.911Z,80.19
2019-03-15T10:42:16.923Z,80.51
2019-03-15T10:43:16.991Z,80.19
2019-03-15T10:44:17.100Z,80.33
2019-03-15T10:45:16.904Z,81.33
2019-03-15T10:46:16.993Z,82.15
2019-03-15T10:47:16.875Z,79.79
2019-03-15T10:48:25.258Z,80.51
2019-03-15T10:49:17.865Z,80.30
2019-03-15T10:50:17.884Z,80.19
2019-03-15T10:51:16.825Z,79.27
2019-03-15T10:52:17.935Z,79.79
2019-03-15T10:53:16.806Z,79.00
2019-03-15T10:54:16.903Z,78.65
2019-03-15T10:55:16.789Z,79.68
2019-03-15T10:56:16.873Z,79.79
2019-03-15T10:57:16.757Z,79.79
2019-03-15T10:58:16.808Z,80.16
2019-03-15T10:59:16.808Z,79.68
2019-03-15T11:00:16.842Z,80.16
2019-03-15T11:01:16.699Z,80.16
2019-03-15T11:02:17.799Z,79.64
2019-03-15T11:03:16.681Z,79.54
2019-03-15T11:04:17.771Z,79.85
2019-03-15T11:05:16.666Z,78.30
2019-03-15T11:06:16.742Z,78.10
2019-03-15T11:07:16.632Z,77.89
2019-03-15T11:08:16.684Z,79.75
2019-03-15T11:09:16.623Z,81.25
2019-03-15T11:10:16.714Z,78.89
2019-03-15T11:11:16.578Z,80.63
2019-03-15T11:12:16.654Z,79.19
2019-03-15T11:13:16.566Z,78.17
2019-03-15T11:14:16.629Z,79.71
2019-03-15T11:15:16.546Z,80.43
2019-03-15T11:16:16.519Z,79.81
2019-03-15T11:17:16.517Z,79.50
2019-03-15T11:18:16.558Z,79.98
2019-03-15T11:19:16.507Z,78.64
2019-03-15T11:20:16.621Z,78.68
2019-03-15T11:21:16.478Z,79.50
2019-03-15T11:22:16.460Z,80.08
2019-03-15T11:23:16.449Z,77.82
2019-03-15T11:24:16.503Z,79.36
2019-03-15T11:25:16.420Z,79.16
2019-03-15T11:26:23.481Z,79.26
2019-03-15T11:27:16.403Z,79.94
2019-03-15T11:28:16.432Z,78.81
2019-03-15T11:29:16.402Z,79.53
2019-03-15T11:30:16.481Z,78.30
2019-03-15T11:31:16.345Z,79.12
2019-03-15T11:32:22.964Z,78.36
2019-03-15T11:33:16.374Z,77.17
2019-03-15T11:34:16.374Z,77.13
2019-03-15T11:35:17.346Z,76.86
2019-03-15T11:36:16.316Z,77.58
2019-03-15T11:37:16.358Z,77.06
2019-03-15T11:38:16.325Z,78.88
2019-03-15T11:39:16.277Z,77.03
2019-03-15T11:40:18.900Z,78.27
2019-03-15T11:41:16.269Z,77.68
2019-03-15T11:42:16.297Z,77.48
2019-03-15T11:43:16.228Z,78.50
2019-03-15T11:44:16.219Z,79.43
2019-03-15T11:45:16.243Z,79.02
2019-03-15T11:46:16.552Z,77.37
2019-03-15T11:47:16.244Z,79.47
2019-03-15T11:48:16.181Z,79.67
2019-03-15T11:49:16.151Z,78.75
2019-03-15T11:50:16.173Z,80.08
2019-03-15T11:51:16.123Z,79.16
2019-03-15T11:52:16.173Z,79.47
2019-03-15T11:53:18.816Z,80.49
2019-03-15T11:54:16.095Z,80.80
2019-03-15T11:55:16.104Z,81.21
2019-03-15T11:56:26.412Z,80.08
2019-03-15T11:57:17.066Z,79.98
2019-03-15T11:58:16.076Z,79.36
2019-03-15T11:59:16.045Z,80.39
2019-03-15T12:00:16.049Z,80.08
2019-03-15T12:01:17.107Z,79.57
2019-03-15T12:02:16.008Z,79.63
2019-03-15T12:03:17.038Z,79.67
2019-03-15T12:04:15.987Z,79.74
2019-03-15T12:05:17.021Z,79.67
2019-03-15T12:06:15.961Z,79.67
2019-03-15T12:07:15.990Z,80.80
2019-03-15T12:08:15.940Z,80.77
2019-03-15T12:09:16.030Z,80.15
2019-03-15T12:10:15.931Z,80.66
2019-03-15T12:11:15.902Z,80.66
2019-03-15T12:12:15.942Z,79.84
2019-03-15T12:13:15.882Z,80.05
2019-03-15T12:14:15.965Z,81.07
2019-03-15T12:15:15.879Z,81.48
2019-03-15T12:16:15.853Z,80.77
2019-03-15T12:17:15.835Z,80.66
2019-03-15T12:18:16.864Z,80.87
2019-03-15T12:19:15.825Z,81.07
2019-03-15T12:20:15.930Z,81.90
2019-03-15T12:21:15.800Z,81.48
2019-03-15T12:22:15.796Z,81.69
2019-03-15T12:23:16.806Z,81.07
2019-03-15T12:24:15.767Z,81.79
2019-03-15T12:25:15.868Z,81.90
2019-03-15T12:26:15.738Z,81.79
2019-03-15T12:27:15.739Z,81.86
2019-03-15T12:28:15.723Z,82.00
2019-03-15T12:29:16.808Z,82.06
2019-03-15T12:30:15.822Z,82.41
2019-03-15T12:31:17.769Z,83.33
2019-03-15T12:32:15.684Z,82.41
2019-03-15T12:33:15.661Z,82.78
2019-03-15T12:34:15.731Z,83.09
2019-03-15T12:35:15.652Z,83.40
2019-03-15T12:36:16.615Z,82.41
2019-03-15T12:37:15.623Z,83.13
2019-03-15T12:38:15.615Z,83.64
2019-03-15T12:39:15.594Z,82.27
2019-03-15T12:40:15.598Z,82.51
2019-03-15T12:41:15.605Z,82.57
2019-03-15T12:42:15.556Z,82.37
2019-03-15T12:43:15.545Z,81.76
2019-03-15T12:44:15.536Z,82.06
2019-03-15T12:45:15.626Z,82.68
2019-03-15T12:46:15.507Z,83.09
2019-03-15T12:47:15.610Z,83.19
2019-03-15T12:48:15.488Z,83.09
2019-03-15T12:49:15.478Z,82.47
2019-03-15T12:50:15.563Z,82.17
2019-03-15T12:51:15.442Z,82.57
2019-03-15T12:52:16.470Z,83.40